sensor_id;sensor_type;location;lat;lon;timestamp;temperature;humidity
49222;DHT22;35047;37.588;-122.048;2022-12-10T00:00:53;19.70;65.20
49222;DHT22;35047;37.588;-122.048;2022-12-10T00:03:19;19.90;65.30
49222;DHT22;35047;37.588;-122.048;2022-12-10T00:05:46;19.90;65.40
49222;DHT22;35047;37.588;-122.048;2022-12-10T00:08:13;20.10;65.30
49222;DHT22;35047;37.588;-122.048;2022-12-10T00:10:40;20.00;65.10
49222;DHT22;35047;37.588;-122.048;2022-12-10T00:13:06;19.90;65.60
49222;DHT22;35047;37.588;-122.048;2022-12-10T00:15:36;19.60;66.10
49222;DHT22;35047;37.588;-122.048;2022-12-10T00:18:04;19.30;66.90
49222;DHT22;35047;37.588;-122.048;2022-12-10T00:20:31;19.10;68.20
49222;DHT22;35047;37.588;-122.048;2022-12-10T00:22:58;19.00;68.60
49222;DHT22;35047;37.588;-122.048;2022-12-10T00:25:25;19.00;69.00
49222;DHT22;35047;37.588;-122.048;2022-12-10T00:27:52;19.00;69.00
49222;DHT22;35047;37.588;-122.048;2022-12-10T00:30:18;18.90;69.60
49222;DHT22;35047;37.588;-122.048;2022-12-10T00:32:45;19.00;69.60
49222;DHT22;35047;37.588;-122.048;2022-12-10T00:35:12;18.90;69.50
49222;DHT22;35047;37.588;-122.048;2022-12-10T00:37:39;18.80;68.90
49222;DHT22;35047;37.588;-122.048;2022-12-10T00:40:07;18.70;69.70
49222;DHT22;35047;37.588;-122.048;2022-12-10T00:42:34;18.60;70.00
49222;DHT22;35047;37.588;-122.048;2022-12-10T00:45:01;18.60;69.60
49222;DHT22;35047;37.588;-122.048;2022-12-10T00:47:27;18.40;70.30
49222;DHT22;35047;37.588;-122.048;2022-12-10T00:49:54;18.20;71.20
49222;DHT22;35047;37.588;-122.048;2022-12-10T00:52:20;18.30;71.30
49222;DHT22;35047;37.588;-122.048;2022-12-10T00:54:47;18.50;70.90
49222;DHT22;35047;37.588;-122.048;2022-12-10T00:57:13;18.50;70.30
49222;DHT22;35047;37.588;-122.048;2022-12-10T00:59:41;18.50;70.50
49222;DHT22;35047;37.588;-122.048;2022-12-10T01:02:07;18.50;70.40
49222;DHT22;35047;37.588;-122.048;2022-12-10T01:04:35;18.50;70.40
49222;DHT22;35047;37.588;-122.048;2022-12-10T01:07:01;18.60;70.40
49222;DHT22;35047;37.588;-122.048;2022-12-10T01:09:30;18.60;70.10
49222;DHT22;35047;37.588;-122.048;2022-12-10T01:12:01;18.50;70.40
49222;DHT22;35047;37.588;-122.048;2022-12-10T01:14:31;18.40;70.40
49222;DHT22;35047;37.588;-122.048;2022-12-10T01:17:00;18.30;70.60
49222;DHT22;35047;37.588;-122.048;2022-12-10T01:19:29;18.20;71.20
49222;DHT22;35047;37.588;-122.048;2022-12-10T01:21:57;18.10;72.00
49222;DHT22;35047;37.588;-122.048;2022-12-10T01:24:25;18.20;71.10
49222;DHT22;35047;37.588;-122.048;2022-12-10T01:26:51;18.20;71.40
49222;DHT22;35047;37.588;-122.048;2022-12-10T01:29:20;18.20;71.40
49222;DHT22;35047;37.588;-122.048;2022-12-10T01:31:51;18.00;71.80
49222;DHT22;35047;37.588;-122.048;2022-12-10T01:34:21;18.10;72.20
49222;DHT22;35047;37.588;-122.048;2022-12-10T01:36:50;18.00;72.30
49222;DHT22;35047;37.588;-122.048;2022-12-10T01:39:19;18.20;72.80
49222;DHT22;35047;37.588;-122.048;2022-12-10T01:41:52;18.20;72.30
49222;DHT22;35047;37.588;-122.048;2022-12-10T01:46:48;18.20;73.20
49222;DHT22;35047;37.588;-122.048;2022-12-10T01:49:21;18.10;72.80
49222;DHT22;35047;37.588;-122.048;2022-12-10T01:51:50;17.90;73.60
49222;DHT22;35047;37.588;-122.048;2022-12-10T01:54:24;17.90;73.50
49222;DHT22;35047;37.588;-122.048;2022-12-10T01:56:58;18.00;73.70
49222;DHT22;35047;37.588;-122.048;2022-12-10T01:59:26;18.00;73.30
49222;DHT22;35047;37.588;-122.048;2022-12-10T02:05:02;17.90;74.40
49222;DHT22;35047;37.588;-122.048;2022-12-10T02:16:44;17.80;74.10
49222;DHT22;35047;37.588;-122.048;2022-12-10T02:19:02;17.90;74.20
49222;DHT22;35047;37.588;-122.048;2022-12-10T02:21:38;17.70;74.70
49222;DHT22;35047;37.588;-122.048;2022-12-10T02:24:10;17.50;75.10
49222;DHT22;35047;37.588;-122.048;2022-12-10T02:26:52;17.30;76.00
49222;DHT22;35047;37.588;-122.048;2022-12-10T02:29:25;17.30;76.00
49222;DHT22;35047;37.588;-122.048;2022-12-10T02:32:00;17.10;76.20
49222;DHT22;35047;37.588;-122.048;2022-12-10T02:34:31;17.20;76.70
49222;DHT22;35047;37.588;-122.048;2022-12-10T02:37:02;17.20;76.70
49222;DHT22;35047;37.588;-122.048;2022-12-10T02:39:36;17.00;77.50
49222;DHT22;35047;37.588;-122.048;2022-12-10T02:42:05;17.20;77.10
49222;DHT22;35047;37.588;-122.048;2022-12-10T02:44:36;17.00;77.30
49222;DHT22;35047;37.588;-122.048;2022-12-10T02:47:03;17.10;77.80
49222;DHT22;35047;37.588;-122.048;2022-12-10T02:49:31;17.30;76.90
49222;DHT22;35047;37.588;-122.048;2022-12-10T02:52:05;17.40;77.20
49222;DHT22;35047;37.588;-122.048;2022-12-10T02:54:40;17.30;76.80
49222;DHT22;35047;37.588;-122.048;2022-12-10T03:00:24;17.20;76.90
49222;DHT22;35047;37.588;-122.048;2022-12-10T03:03:14;17.30;77.30
49222;DHT22;35047;37.588;-122.048;2022-12-10T03:06:20;17.30;76.40
49222;DHT22;35047;37.588;-122.048;2022-12-10T03:08:53;17.20;76.90
49222;DHT22;35047;37.588;-122.048;2022-12-10T03:11:23;17.10;76.20
49222;DHT22;35047;37.588;-122.048;2022-12-10T03:13:58;17.00;76.20
49222;DHT22;35047;37.588;-122.048;2022-12-10T03:16:34;17.20;75.50
49222;DHT22;35047;37.588;-122.048;2022-12-10T03:19:04;17.10;74.90
49222;DHT22;35047;37.588;-122.048;2022-12-10T03:21:33;17.20;74.40
49222;DHT22;35047;37.588;-122.048;2022-12-10T03:24:02;17.20;74.40
49222;DHT22;35047;37.588;-122.048;2022-12-10T03:26:31;17.30;74.20
49222;DHT22;35047;37.588;-122.048;2022-12-10T03:29:05;17.20;73.50
49222;DHT22;35047;37.588;-122.048;2022-12-10T03:31:34;17.30;74.30
49222;DHT22;35047;37.588;-122.048;2022-12-10T03:34:02;17.50;74.00
49222;DHT22;35047;37.588;-122.048;2022-12-10T03:36:30;17.60;73.70
49222;DHT22;35047;37.588;-122.048;2022-12-10T03:38:57;17.50;73.20
49222;DHT22;35047;37.588;-122.048;2022-12-10T03:41:25;17.40;73.60
49222;DHT22;35047;37.588;-122.048;2022-12-10T03:43:53;17.30;73.50
49222;DHT22;35047;37.588;-122.048;2022-12-10T03:46:22;17.40;73.50
49222;DHT22;35047;37.588;-122.048;2022-12-10T03:48:49;17.30;73.50
49222;DHT22;35047;37.588;-122.048;2022-12-10T03:51:16;17.30;73.80
49222;DHT22;35047;37.588;-122.048;2022-12-10T03:53:43;17.30;74.00
49222;DHT22;35047;37.588;-122.048;2022-12-10T03:56:09;17.40;73.90
49222;DHT22;35047;37.588;-122.048;2022-12-10T03:58:36;17.40;73.20
49222;DHT22;35047;37.588;-122.048;2022-12-10T04:01:05;17.10;73.90
49222;DHT22;35047;37.588;-122.048;2022-12-10T04:03:35;17.20;73.80
49222;DHT22;35047;37.588;-122.048;2022-12-10T04:06:04;17.10;74.20
49222;DHT22;35047;37.588;-122.048;2022-12-10T04:08:31;17.30;73.90
49222;DHT22;35047;37.588;-122.048;2022-12-10T04:11:06;17.30;73.70
49222;DHT22;35047;37.588;-122.048;2022-12-10T04:13:34;17.30;73.30
49222;DHT22;35047;37.588;-122.048;2022-12-10T04:16:21;17.30;73.40
49222;DHT22;35047;37.588;-122.048;2022-12-10T04:18:56;17.50;73.30
49222;DHT22;35047;37.588;-122.048;2022-12-10T04:21:25;17.50;73.00
49222;DHT22;35047;37.588;-122.048;2022-12-10T04:24:10;17.20;72.60
49222;DHT22;35047;37.588;-122.048;2022-12-10T04:26:58;17.10;73.90
49222;DHT22;35047;37.588;-122.048;2022-12-10T04:29:29;17.30;73.60
49222;DHT22;35047;37.588;-122.048;2022-12-10T04:31:57;17.30;73.40
49222;DHT22;35047;37.588;-122.048;2022-12-10T04:34:25;17.20;72.60
49222;DHT22;35047;37.588;-122.048;2022-12-10T04:36:52;17.10;73.30
49222;DHT22;35047;37.588;-122.048;2022-12-10T04:39:23;17.10;73.40
49222;DHT22;35047;37.588;-122.048;2022-12-10T04:41:50;17.20;73.40
49222;DHT22;35047;37.588;-122.048;2022-12-10T04:44:18;17.30;73.50
49222;DHT22;35047;37.588;-122.048;2022-12-10T04:46:46;17.40;73.30
49222;DHT22;35047;37.588;-122.048;2022-12-10T04:49:14;17.40;72.90
49222;DHT22;35047;37.588;-122.048;2022-12-10T04:51:41;17.40;72.50
49222;DHT22;35047;37.588;-122.048;2022-12-10T04:54:09;17.20;72.40
49222;DHT22;35047;37.588;-122.048;2022-12-10T04:56:36;16.80;73.00
49222;DHT22;35047;37.588;-122.048;2022-12-10T04:59:03;16.60;74.30
49222;DHT22;35047;37.588;-122.048;2022-12-10T05:01:31;16.70;75.10
49222;DHT22;35047;37.588;-122.048;2022-12-10T05:04:04;16.90;74.50
49222;DHT22;35047;37.588;-122.048;2022-12-10T05:06:32;17.00;73.90
49222;DHT22;35047;37.588;-122.048;2022-12-10T05:08:59;17.10;73.90
49222;DHT22;35047;37.588;-122.048;2022-12-10T05:11:27;17.20;73.60
49222;DHT22;35047;37.588;-122.048;2022-12-10T05:13:54;17.20;73.90
49222;DHT22;35047;37.588;-122.048;2022-12-10T05:16:22;17.30;72.80
49222;DHT22;35047;37.588;-122.048;2022-12-10T05:18:50;17.30;72.70
49222;DHT22;35047;37.588;-122.048;2022-12-10T05:21:17;17.30;72.40
49222;DHT22;35047;37.588;-122.048;2022-12-10T05:23:46;17.40;72.20
49222;DHT22;35047;37.588;-122.048;2022-12-10T05:26:15;17.40;71.90
49222;DHT22;35047;37.588;-122.048;2022-12-10T05:28:50;17.30;71.70
49222;DHT22;35047;37.588;-122.048;2022-12-10T05:31:25;17.20;72.10
49222;DHT22;35047;37.588;-122.048;2022-12-10T05:33:54;17.10;72.60
49222;DHT22;35047;37.588;-122.048;2022-12-10T05:36:27;16.90;73.20
49222;DHT22;35047;37.588;-122.048;2022-12-10T05:38:55;16.70;73.40
49222;DHT22;35047;37.588;-122.048;2022-12-10T05:41:28;16.50;73.90
49222;DHT22;35047;37.588;-122.048;2022-12-10T05:43:56;16.30;74.40
49222;DHT22;35047;37.588;-122.048;2022-12-10T05:46:29;16.50;74.70
49222;DHT22;35047;37.588;-122.048;2022-12-10T05:48:57;16.70;74.30
49222;DHT22;35047;37.588;-122.048;2022-12-10T05:51:27;16.80;73.90
49222;DHT22;35047;37.588;-122.048;2022-12-10T05:53:54;16.90;73.60
49222;DHT22;35047;37.588;-122.048;2022-12-10T05:56:23;16.90;73.20
49222;DHT22;35047;37.588;-122.048;2022-12-10T05:58:51;16.60;73.60
49222;DHT22;35047;37.588;-122.048;2022-12-10T06:01:21;16.70;74.10
49222;DHT22;35047;37.588;-122.048;2022-12-10T06:03:48;16.70;74.00
49222;DHT22;35047;37.588;-122.048;2022-12-10T06:06:21;16.70;73.60
49222;DHT22;35047;37.588;-122.048;2022-12-10T06:08:48;16.40;74.00
49222;DHT22;35047;37.588;-122.048;2022-12-10T06:11:15;16.20;75.50
49222;DHT22;35047;37.588;-122.048;2022-12-10T06:13:41;16.40;75.10
49222;DHT22;35047;37.588;-122.048;2022-12-10T06:16:10;16.60;74.90
49222;DHT22;35047;37.588;-122.048;2022-12-10T06:18:37;16.70;74.10
49222;DHT22;35047;37.588;-122.048;2022-12-10T06:21:06;16.60;74.40
49222;DHT22;35047;37.588;-122.048;2022-12-10T06:23:37;16.70;74.30
49222;DHT22;35047;37.588;-122.048;2022-12-10T06:26:05;16.80;74.20
49222;DHT22;35047;37.588;-122.048;2022-12-10T06:28:32;16.80;74.00
49222;DHT22;35047;37.588;-122.048;2022-12-10T06:31:00;16.80;73.80
49222;DHT22;35047;37.588;-122.048;2022-12-10T06:33:27;16.60;74.40
49222;DHT22;35047;37.588;-122.048;2022-12-10T06:35:53;16.50;75.00
49222;DHT22;35047;37.588;-122.048;2022-12-10T06:38:20;16.50;75.10
49222;DHT22;35047;37.588;-122.048;2022-12-10T06:40:47;16.50;75.40
49222;DHT22;35047;37.588;-122.048;2022-12-10T06:43:13;16.30;75.50
49222;DHT22;35047;37.588;-122.048;2022-12-10T06:45:42;16.30;76.20
49222;DHT22;35047;37.588;-122.048;2022-12-10T06:48:09;16.40;76.20
49222;DHT22;35047;37.588;-122.048;2022-12-10T06:50:37;16.50;76.10
49222;DHT22;35047;37.588;-122.048;2022-12-10T06:53:05;16.50;75.80
49222;DHT22;35047;37.588;-122.048;2022-12-10T06:55:31;16.50;75.30
49222;DHT22;35047;37.588;-122.048;2022-12-10T06:57:58;16.30;76.30
49222;DHT22;35047;37.588;-122.048;2022-12-10T07:00:24;16.40;76.20
49222;DHT22;35047;37.588;-122.048;2022-12-10T07:02:51;16.50;76.10
49222;DHT22;35047;37.588;-122.048;2022-12-10T07:05:18;16.30;76.20
49222;DHT22;35047;37.588;-122.048;2022-12-10T07:07:44;16.30;76.60
49222;DHT22;35047;37.588;-122.048;2022-12-10T07:10:13;16.30;76.70
49222;DHT22;35047;37.588;-122.048;2022-12-10T07:12:40;16.40;76.90
49222;DHT22;35047;37.588;-122.048;2022-12-10T07:15:07;16.40;76.50
49222;DHT22;35047;37.588;-122.048;2022-12-10T07:17:34;16.10;76.60
49222;DHT22;35047;37.588;-122.048;2022-12-10T07:20:00;16.20;77.40
49222;DHT22;35047;37.588;-122.048;2022-12-10T07:22:28;16.20;77.20
49222;DHT22;35047;37.588;-122.048;2022-12-10T07:24:56;16.30;77.20
49222;DHT22;35047;37.588;-122.048;2022-12-10T07:27:22;16.40;77.10
49222;DHT22;35047;37.588;-122.048;2022-12-10T07:29:49;16.10;76.90
49222;DHT22;35047;37.588;-122.048;2022-12-10T07:32:17;16.10;77.20
49222;DHT22;35047;37.588;-122.048;2022-12-10T07:34:44;16.00;78.40
49222;DHT22;35047;37.588;-122.048;2022-12-10T07:37:12;16.10;78.10
49222;DHT22;35047;37.588;-122.048;2022-12-10T07:39:40;16.00;78.30
49222;DHT22;35047;37.588;-122.048;2022-12-10T07:42:08;16.10;78.30
49222;DHT22;35047;37.588;-122.048;2022-12-10T07:44:35;16.10;79.10
49222;DHT22;35047;37.588;-122.048;2022-12-10T07:47:01;16.20;78.20
49222;DHT22;35047;37.588;-122.048;2022-12-10T07:49:29;16.20;78.20
49222;DHT22;35047;37.588;-122.048;2022-12-10T07:51:56;16.20;78.10
49222;DHT22;35047;37.588;-122.048;2022-12-10T07:54:23;16.20;77.90
49222;DHT22;35047;37.588;-122.048;2022-12-10T07:56:49;16.10;77.40
49222;DHT22;35047;37.588;-122.048;2022-12-10T07:59:17;16.00;78.20
49222;DHT22;35047;37.588;-122.048;2022-12-10T08:01:43;16.00;78.80
49222;DHT22;35047;37.588;-122.048;2022-12-10T08:04:10;16.10;78.40
49222;DHT22;35047;37.588;-122.048;2022-12-10T08:06:37;16.20;78.40
49222;DHT22;35047;37.588;-122.048;2022-12-10T08:09:03;16.20;78.30
49222;DHT22;35047;37.588;-122.048;2022-12-10T08:11:31;16.20;78.10
49222;DHT22;35047;37.588;-122.048;2022-12-10T08:13:58;16.20;78.20
49222;DHT22;35047;37.588;-122.048;2022-12-10T08:16:27;16.20;77.80
49222;DHT22;35047;37.588;-122.048;2022-12-10T08:18:56;16.20;78.20
49222;DHT22;35047;37.588;-122.048;2022-12-10T08:21:26;16.00;77.20
49222;DHT22;35047;37.588;-122.048;2022-12-10T08:23:54;15.80;76.90
49222;DHT22;35047;37.588;-122.048;2022-12-10T08:26:26;15.60;76.60
49222;DHT22;35047;37.588;-122.048;2022-12-10T08:28:54;15.50;78.20
49222;DHT22;35047;37.588;-122.048;2022-12-10T08:31:22;15.60;79.30
49222;DHT22;35047;37.588;-122.048;2022-12-10T08:33:50;15.60;79.10
49222;DHT22;35047;37.588;-122.048;2022-12-10T08:36:18;15.40;78.60
49222;DHT22;35047;37.588;-122.048;2022-12-10T08:38:44;15.40;78.90
49222;DHT22;35047;37.588;-122.048;2022-12-10T08:41:17;15.70;80.00
49222;DHT22;35047;37.588;-122.048;2022-12-10T08:43:44;15.50;79.60
49222;DHT22;35047;37.588;-122.048;2022-12-10T08:46:12;15.70;79.80
49222;DHT22;35047;37.588;-122.048;2022-12-10T08:48:39;15.70;79.20
49222;DHT22;35047;37.588;-122.048;2022-12-10T08:51:06;15.70;79.90
49222;DHT22;35047;37.588;-122.048;2022-12-10T08:53:35;15.80;79.70
49222;DHT22;35047;37.588;-122.048;2022-12-10T08:56:02;15.70;78.00
49222;DHT22;35047;37.588;-122.048;2022-12-10T08:58:29;15.90;80.10
49222;DHT22;35047;37.588;-122.048;2022-12-10T09:00:56;15.80;78.30
49222;DHT22;35047;37.588;-122.048;2022-12-10T09:03:25;15.70;77.60
49222;DHT22;35047;37.588;-122.048;2022-12-10T09:05:54;15.70;78.80
49222;DHT22;35047;37.588;-122.048;2022-12-10T09:08:20;15.50;78.30
49222;DHT22;35047;37.588;-122.048;2022-12-10T09:10:47;15.60;78.70
49222;DHT22;35047;37.588;-122.048;2022-12-10T09:13:13;15.40;78.90
49222;DHT22;35047;37.588;-122.048;2022-12-10T09:15:41;15.50;79.50
49222;DHT22;35047;37.588;-122.048;2022-12-10T09:18:08;15.60;79.70
49222;DHT22;35047;37.588;-122.048;2022-12-10T09:20:36;15.70;80.20
49222;DHT22;35047;37.588;-122.048;2022-12-10T09:23:02;15.70;80.70
49222;DHT22;35047;37.588;-122.048;2022-12-10T09:25:30;15.40;79.20
49222;DHT22;35047;37.588;-122.048;2022-12-10T09:27:57;15.40;79.50
49222;DHT22;35047;37.588;-122.048;2022-12-10T09:30:23;15.60;81.20
49222;DHT22;35047;37.588;-122.048;2022-12-10T09:32:50;15.50;79.60
49222;DHT22;35047;37.588;-122.048;2022-12-10T09:35:17;15.70;80.60
49222;DHT22;35047;37.588;-122.048;2022-12-10T09:37:44;15.70;79.70
49222;DHT22;35047;37.588;-122.048;2022-12-10T09:40:31;15.90;80.00
49222;DHT22;35047;37.588;-122.048;2022-12-10T09:45:37;16.10;80.40
49222;DHT22;35047;37.588;-122.048;2022-12-10T09:48:21;16.10;80.20
49222;DHT22;35047;37.588;-122.048;2022-12-10T09:51:05;16.20;80.20
49222;DHT22;35047;37.588;-122.048;2022-12-10T09:53:34;16.10;79.90
49222;DHT22;35047;37.588;-122.048;2022-12-10T09:56:03;16.20;80.10
49222;DHT22;35047;37.588;-122.048;2022-12-10T09:58:30;16.20;79.10
49222;DHT22;35047;37.588;-122.048;2022-12-10T10:01:05;16.10;79.10
49222;DHT22;35047;37.588;-122.048;2022-12-10T10:03:38;16.00;79.00
49222;DHT22;35047;37.588;-122.048;2022-12-10T10:06:13;16.00;78.80
49222;DHT22;35047;37.588;-122.048;2022-12-10T10:08:50;16.20;79.50
49222;DHT22;35047;37.588;-122.048;2022-12-10T10:11:23;16.10;79.20
49222;DHT22;35047;37.588;-122.048;2022-12-10T10:14:14;16.20;79.10
49222;DHT22;35047;37.588;-122.048;2022-12-10T10:17:08;16.20;79.90
49222;DHT22;35047;37.588;-122.048;2022-12-10T10:19:36;16.20;79.90
49222;DHT22;35047;37.588;-122.048;2022-12-10T10:22:05;16.20;79.80
49222;DHT22;35047;37.588;-122.048;2022-12-10T10:24:38;16.20;79.50
49222;DHT22;35047;37.588;-122.048;2022-12-10T10:27:18;16.10;78.30
49222;DHT22;35047;37.588;-122.048;2022-12-10T10:29:53;16.10;79.90
49222;DHT22;35047;37.588;-122.048;2022-12-10T10:32:25;16.10;80.00
49222;DHT22;35047;37.588;-122.048;2022-12-10T10:34:57;16.10;80.00
49222;DHT22;35047;37.588;-122.048;2022-12-10T10:37:28;16.00;80.40
49222;DHT22;35047;37.588;-122.048;2022-12-10T10:39:56;16.00;80.10
49222;DHT22;35047;37.588;-122.048;2022-12-10T10:42:31;16.00;81.20
49222;DHT22;35047;37.588;-122.048;2022-12-10T10:45:06;16.00;81.30
49222;DHT22;35047;37.588;-122.048;2022-12-10T10:47:34;16.00;81.20
49222;DHT22;35047;37.588;-122.048;2022-12-10T10:50:04;16.10;81.60
49222;DHT22;35047;37.588;-122.048;2022-12-10T10:52:37;16.00;81.20
49222;DHT22;35047;37.588;-122.048;2022-12-10T10:55:08;16.10;81.50
49222;DHT22;35047;37.588;-122.048;2022-12-10T10:57:52;16.10;81.70
49222;DHT22;35047;37.588;-122.048;2022-12-10T11:00:20;16.00;81.40
49222;DHT22;35047;37.588;-122.048;2022-12-10T11:02:49;15.90;81.50
49222;DHT22;35047;37.588;-122.048;2022-12-10T11:05:30;16.00;81.80
49222;DHT22;35047;37.588;-122.048;2022-12-10T11:07:59;16.10;82.40
49222;DHT22;35047;37.588;-122.048;2022-12-10T11:10:28;16.10;82.00
49222;DHT22;35047;37.588;-122.048;2022-12-10T11:13:06;16.00;81.40
49222;DHT22;35047;37.588;-122.048;2022-12-10T11:15:35;16.00;81.80
49222;DHT22;35047;37.588;-122.048;2022-12-10T11:18:09;16.10;82.20
49222;DHT22;35047;37.588;-122.048;2022-12-10T11:23:29;16.20;82.30
49222;DHT22;35047;37.588;-122.048;2022-12-10T11:26:05;16.20;82.00
49222;DHT22;35047;37.588;-122.048;2022-12-10T11:28:45;16.20;82.60
49222;DHT22;35047;37.588;-122.048;2022-12-10T11:31:25;16.20;82.10
49222;DHT22;35047;37.588;-122.048;2022-12-10T11:34:08;16.20;82.60
49222;DHT22;35047;37.588;-122.048;2022-12-10T11:36:41;16.20;82.30
49222;DHT22;35047;37.588;-122.048;2022-12-10T11:39:49;16.30;82.50
49222;DHT22;35047;37.588;-122.048;2022-12-10T11:42:26;16.20;80.90
49222;DHT22;35047;37.588;-122.048;2022-12-10T11:55:46;15.90;82.40
49222;DHT22;35047;37.588;-122.048;2022-12-10T11:58:37;16.10;83.50
49222;DHT22;35047;37.588;-122.048;2022-12-10T12:09:44;15.90;84.30
49222;DHT22;35047;37.588;-122.048;2022-12-10T12:15:24;15.80;84.00
49222;DHT22;35047;37.588;-122.048;2022-12-10T12:18:09;15.80;84.50
49222;DHT22;35047;37.588;-122.048;2022-12-10T12:20:45;16.00;85.70
49222;DHT22;35047;37.588;-122.048;2022-12-10T12:23:26;16.00;84.70
49222;DHT22;35047;37.588;-122.048;2022-12-10T12:26:07;16.10;85.10
49222;DHT22;35047;37.588;-122.048;2022-12-10T12:28:39;16.10;84.90
49222;DHT22;35047;37.588;-122.048;2022-12-10T12:31:12;16.00;84.10
49222;DHT22;35047;37.588;-122.048;2022-12-10T12:33:55;16.10;85.60
49222;DHT22;35047;37.588;-122.048;2022-12-10T12:36:27;16.10;85.30
49222;DHT22;35047;37.588;-122.048;2022-12-10T12:53:09;16.10;86.90
49222;DHT22;35047;37.588;-122.048;2022-12-10T13:03:43;15.90;87.40
49222;DHT22;35047;37.588;-122.048;2022-12-10T13:06:26;15.90;87.40
49222;DHT22;35047;37.588;-122.048;2022-12-10T13:11:29;16.10;88.80
49222;DHT22;35047;37.588;-122.048;2022-12-10T13:14:13;16.00;87.90
49222;DHT22;35047;37.588;-122.048;2022-12-10T13:16:46;16.00;87.80
49222;DHT22;35047;37.588;-122.048;2022-12-10T13:30:29;16.10;88.40
49222;DHT22;35047;37.588;-122.048;2022-12-10T13:33:24;16.10;88.80
49222;DHT22;35047;37.588;-122.048;2022-12-10T13:35:58;16.10;89.30
49222;DHT22;35047;37.588;-122.048;2022-12-10T13:38:27;16.10;89.70
49222;DHT22;35047;37.588;-122.048;2022-12-10T13:41:02;16.10;89.80
49222;DHT22;35047;37.588;-122.048;2022-12-10T13:43:59;16.20;90.10
49222;DHT22;35047;37.588;-122.048;2022-12-10T13:46:57;16.20;90.20
49222;DHT22;35047;37.588;-122.048;2022-12-10T13:49:28;16.20;90.30
49222;DHT22;35047;37.588;-122.048;2022-12-10T13:52:04;16.20;90.30
49222;DHT22;35047;37.588;-122.048;2022-12-10T14:00:46;16.20;90.50
49222;DHT22;35047;37.588;-122.048;2022-12-10T14:03:52;16.10;90.80
49222;DHT22;35047;37.588;-122.048;2022-12-10T14:06:24;16.00;90.40
49222;DHT22;35047;37.588;-122.048;2022-12-10T14:09:08;16.00;90.80
49222;DHT22;35047;37.588;-122.048;2022-12-10T14:11:43;15.90;91.30
49222;DHT22;35047;37.588;-122.048;2022-12-10T14:14:38;15.90;91.30
49222;DHT22;35047;37.588;-122.048;2022-12-10T14:17:10;15.80;91.20
49222;DHT22;35047;37.588;-122.048;2022-12-10T14:19:39;15.80;91.50
49222;DHT22;35047;37.588;-122.048;2022-12-10T14:22:06;15.80;91.50
49222;DHT22;35047;37.588;-122.048;2022-12-10T14:24:39;15.80;91.90
49222;DHT22;35047;37.588;-122.048;2022-12-10T14:27:20;15.70;92.00
49222;DHT22;35047;37.588;-122.048;2022-12-10T14:29:53;15.80;92.20
49222;DHT22;35047;37.588;-122.048;2022-12-10T14:32:36;15.70;92.20
49222;DHT22;35047;37.588;-122.048;2022-12-10T14:35:11;15.80;92.50
49222;DHT22;35047;37.588;-122.048;2022-12-10T14:37:42;15.70;92.40
49222;DHT22;35047;37.588;-122.048;2022-12-10T14:40:21;15.60;92.70
49222;DHT22;35047;37.588;-122.048;2022-12-10T14:42:51;15.60;92.50
49222;DHT22;35047;37.588;-122.048;2022-12-10T14:45:19;15.50;93.30
49222;DHT22;35047;37.588;-122.048;2022-12-10T14:47:47;15.50;93.20
49222;DHT22;35047;37.588;-122.048;2022-12-10T14:50:16;15.70;93.10
49222;DHT22;35047;37.588;-122.048;2022-12-10T14:52:51;15.60;93.20
49222;DHT22;35047;37.588;-122.048;2022-12-10T14:55:21;15.60;93.20
49222;DHT22;35047;37.588;-122.048;2022-12-10T14:57:54;15.70;93.60
49222;DHT22;35047;37.588;-122.048;2022-12-10T15:00:22;15.60;93.40
49222;DHT22;35047;37.588;-122.048;2022-12-10T15:02:54;15.60;93.70
49222;DHT22;35047;37.588;-122.048;2022-12-10T15:05:25;15.60;93.60
49222;DHT22;35047;37.588;-122.048;2022-12-10T15:08:06;15.60;93.70
49222;DHT22;35047;37.588;-122.048;2022-12-10T15:10:39;15.60;93.70
49222;DHT22;35047;37.588;-122.048;2022-12-10T15:13:16;15.60;93.70
49222;DHT22;35047;37.588;-122.048;2022-12-10T15:15:48;15.60;93.90
49222;DHT22;35047;37.588;-122.048;2022-12-10T15:18:18;15.70;93.90
49222;DHT22;35047;37.588;-122.048;2022-12-10T15:20:48;15.70;93.80
49222;DHT22;35047;37.588;-122.048;2022-12-10T15:28:41;15.90;93.80
49222;DHT22;35047;37.588;-122.048;2022-12-10T15:31:31;15.90;94.00
49222;DHT22;35047;37.588;-122.048;2022-12-10T15:34:00;15.90;93.80
49222;DHT22;35047;37.588;-122.048;2022-12-10T15:36:53;15.80;93.80
49222;DHT22;35047;37.588;-122.048;2022-12-10T15:39:32;16.00;94.30
49222;DHT22;35047;37.588;-122.048;2022-12-10T15:42:07;15.90;93.70
49222;DHT22;35047;37.588;-122.048;2022-12-10T15:44:44;16.00;93.90
49222;DHT22;35047;37.588;-122.048;2022-12-10T15:47:25;16.10;94.00
49222;DHT22;35047;37.588;-122.048;2022-12-10T15:49:55;16.20;93.80
49222;DHT22;35047;37.588;-122.048;2022-12-10T15:54:52;16.20;93.90
49222;DHT22;35047;37.588;-122.048;2022-12-10T15:57:21;16.20;93.80
49222;DHT22;35047;37.588;-122.048;2022-12-10T15:59:50;16.20;93.70
49222;DHT22;35047;37.588;-122.048;2022-12-10T16:05:10;16.20;94.10
49222;DHT22;35047;37.588;-122.048;2022-12-10T16:07:38;16.20;94.10
49222;DHT22;35047;37.588;-122.048;2022-12-10T16:10:05;16.10;94.40
49222;DHT22;35047;37.588;-122.048;2022-12-10T16:12:35;16.20;94.60
49222;DHT22;35047;37.588;-122.048;2022-12-10T16:15:05;16.10;94.80
49222;DHT22;35047;37.588;-122.048;2022-12-10T16:17:33;16.20;94.60
49222;DHT22;35047;37.588;-122.048;2022-12-10T16:20:18;16.30;94.80
49222;DHT22;35047;37.588;-122.048;2022-12-10T16:22:46;16.40;94.60
49222;DHT22;35047;37.588;-122.048;2022-12-10T16:25:15;16.40;94.50
49222;DHT22;35047;37.588;-122.048;2022-12-10T16:27:42;16.30;94.70
49222;DHT22;35047;37.588;-122.048;2022-12-10T16:30:13;16.30;95.00
49222;DHT22;35047;37.588;-122.048;2022-12-10T16:32:40;16.40;95.20
49222;DHT22;35047;37.588;-122.048;2022-12-10T16:35:07;16.40;95.20
49222;DHT22;35047;37.588;-122.048;2022-12-10T16:37:34;16.40;95.30
49222;DHT22;35047;37.588;-122.048;2022-12-10T16:40:02;16.30;95.50
49222;DHT22;35047;37.588;-122.048;2022-12-10T16:42:29;16.50;95.70
49222;DHT22;35047;37.588;-122.048;2022-12-10T16:44:56;16.50;95.40
49222;DHT22;35047;37.588;-122.048;2022-12-10T16:47:23;16.60;95.30
49222;DHT22;35047;37.588;-122.048;2022-12-10T16:49:49;16.50;95.50